createdAt,value
2023-04-02T00:01:37.510Z,89.94
2023-04-02T00:04:14.847Z,90.15
2023-04-02T00:06:40.594Z,90.25
2023-04-02T00:08:46.014Z,89.56
2023-04-02T00:10:55.493Z,89.85
2023-04-02T00:13:05.991Z,89.67
2023-04-02T00:15:18.560Z,89.21
2023-04-02T00:17:25.567Z,89.65
2023-04-02T00:19:40.432Z,89.70
2023-04-02T00:21:49.674Z,89.54
2023-04-02T00:23:57.469Z,89.50
2023-04-02T00:26:05.072Z,89.71
2023-04-02T00:28:10.130Z,89.39
2023-04-02T00:30:18.898Z,89.93
2023-04-02T00:32:27.792Z,89.39
2023-04-02T00:34:36.734Z,89.42
2023-04-02T00:36:42.177Z,89.50
2023-04-02T00:38:48.794Z,89.48
2023-04-02T00:40:55.837Z,89.33
2023-04-02T00:43:04.600Z,89.40
2023-04-02T00:45:20.470Z,89.59
2023-04-02T00:47:30.856Z,89.21
2023-04-02T00:49:39.791Z,89.67
2023-04-02T00:51:49.596Z,89.27
2023-04-02T00:53:57.656Z,89.66
2023-04-02T00:56:04.640Z,89.11
2023-04-02T00:58:20.476Z,88.67
2023-04-02T01:00:30.256Z,89.10
2023-04-02T01:02:38.613Z,89.10
2023-04-02T01:04:44.791Z,88.92
2023-04-02T01:06:53.626Z,89.25
2023-04-02T01:09:20.104Z,89.30
2023-04-02T01:11:40.482Z,89.24
2023-04-02T01:14:00.364Z,89.48
2023-04-02T01:16:14.334Z,89.12
2023-04-02T01:18:31.885Z,88.88
2023-04-02T01:21:05.120Z,88.83
2023-04-02T01:23:17.192Z,88.95
2023-04-02T01:25:28.663Z,88.95
2023-04-02T01:27:41.686Z,88.52
2023-04-02T01:29:52.230Z,88.82
2023-04-02T01:32:00.633Z,88.80
2023-04-02T01:34:10.155Z,88.52
2023-04-02T01:36:21.051Z,88.68
2023-04-02T01:38:33.107Z,88.25
2023-04-02T01:40:43.989Z,88.53
2023-04-02T01:42:55.973Z,88.11
2023-04-02T01:45:10.554Z,88.21
2023-04-02T01:47:17.774Z,88.44
2023-04-02T01:49:25.316Z,88.74
2023-04-02T01:51:33.274Z,88.19
2023-04-02T01:53:38.159Z,88.44
2023-04-02T01:55:46.215Z,88.16
2023-04-02T01:57:56.300Z,88.37
2023-04-02T02:00:13.734Z,87.91
2023-04-02T02:02:19.982Z,88.26
2023-04-02T02:04:25.394Z,88.43
2023-04-02T02:06:31.594Z,87.97
2023-04-02T02:08:41.904Z,88.28
2023-04-02T02:10:52.310Z,88.08
2023-04-02T02:13:00.539Z,88.14
2023-04-02T02:15:16.411Z,87.99
2023-04-02T02:17:26.766Z,87.87
2023-04-02T02:19:35.894Z,87.56
2023-04-02T02:21:45.016Z,88.17
2023-04-02T02:23:49.873Z,88.19
2023-04-02T02:25:57.074Z,88.00
2023-04-02T02:28:06.255Z,88.07
2023-04-02T02:30:20.020Z,87.41
2023-04-02T02:32:28.317Z,87.67
2023-04-02T02:34:40.091Z,87.75
2023-04-02T02:36:50.975Z,87.52
2023-04-02T02:39:01.349Z,87.90
2023-04-02T02:41:10.578Z,87.71
2023-04-02T02:43:17.768Z,87.79
2023-04-02T02:45:30.801Z,87.65
2023-04-02T02:47:39.238Z,87.75
2023-04-02T02:49:46.689Z,88.05
2023-04-02T02:51:56.714Z,87.65
2023-04-02T02:54:06.211Z,87.92
2023-04-02T02:56:13.935Z,88.18
2023-04-02T02:58:23.724Z,87.96
2023-04-02T03:00:32.461Z,87.93
2023-04-02T03:02:40.773Z,87.75
2023-04-02T03:04:50.940Z,87.98
2023-04-02T03:07:00.276Z,87.91
2023-04-02T03:09:28.078Z,87.87
2023-04-02T03:11:40.205Z,87.98
2023-04-02T03:13:49.580Z,88.31
2023-04-02T03:16:12.903Z,88.13
2023-04-02T03:18:28.940Z,87.66
2023-04-02T03:20:40.856Z,88.38
2023-04-02T03:22:53.897Z,88.16
2023-04-02T03:25:03.846Z,87.44
2023-04-02T03:27:16.214Z,87.71
2023-04-02T03:29:25.900Z,87.35
2023-04-02T03:31:39.784Z,87.76
2023-04-02T03:33:49.108Z,88.08
2023-04-02T03:36:01.066Z,87.80
2023-04-02T03:38:13.740Z,88.09
2023-04-02T03:40:23.334Z,87.70
2023-04-02T03:42:30.360Z,87.94
2023-04-02T03:44:43.234Z,87.79
2023-04-02T03:46:57.467Z,87.70
2023-04-02T03:49:05.924Z,88.13
2023-04-02T03:51:17.488Z,87.66
2023-04-02T03:53:26.337Z,87.76
2023-04-02T03:55:36.803Z,87.83
2023-04-02T03:57:51.424Z,87.54
2023-04-02T04:00:02.640Z,87.86
2023-04-02T04:02:19.484Z,87.83
2023-04-02T04:04:28.060Z,88.21
2023-04-02T04:06:36.004Z,88.29
2023-04-02T04:08:48.123Z,88.12
2023-04-02T04:10:55.493Z,87.98
2023-04-02T04:13:06.766Z,88.19
2023-04-02T04:15:19.149Z,88.28
2023-04-02T04:17:34.890Z,88.35
2023-04-02T04:19:45.984Z,88.64
2023-04-02T04:21:58.778Z,88.21
2023-04-02T04:24:06.826Z,88.35
2023-04-02T04:26:25.105Z,88.15
2023-04-02T04:28:41.273Z,88.09
2023-04-02T04:30:55.276Z,88.00
2023-04-02T04:33:09.291Z,88.02
2023-04-02T04:35:24.423Z,88.12
2023-04-02T04:37:36.754Z,88.14
2023-04-02T04:39:45.956Z,88.21
2023-04-02T04:41:52.762Z,88.30
2023-04-02T04:44:05.128Z,87.76
2023-04-02T04:46:15.110Z,87.75
2023-04-02T04:48:29.235Z,88.17
2023-04-02T04:50:39.179Z,88.19
2023-04-02T04:52:46.530Z,87.72
2023-04-02T04:54:52.715Z,88.01
2023-04-02T04:57:06.664Z,87.40
2023-04-02T04:59:20.868Z,87.64
2023-04-02T05:01:32.043Z,87.58
2023-04-02T05:03:47.992Z,87.54
2023-04-02T05:05:53.610Z,87.54
2023-04-02T05:08:04.276Z,87.38
2023-04-02T05:10:18.626Z,87.53
2023-04-02T05:12:35.472Z,86.97
2023-04-02T05:14:49.015Z,87.17
2023-04-02T05:17:02.855Z,87.50
2023-04-02T05:19:17.015Z,87.27
2023-04-02T05:21:31.024Z,87.34
2023-04-02T05:23:45.074Z,87.35
2023-04-02T05:26:02.653Z,87.05
2023-04-02T05:28:15.104Z,87.13
2023-04-02T05:30:49.581Z,87.24
2023-04-02T05:33:00.604Z,87.21
2023-04-02T05:35:11.549Z,87.03
2023-04-02T05:37:20.655Z,86.82
2023-04-02T05:39:27.217Z,86.46
2023-04-02T05:41:39.338Z,87.03
2023-04-02T05:43:49.063Z,86.99
2023-04-02T05:45:57.807Z,86.46
2023-04-02T05:48:17.187Z,86.90
2023-04-02T05:50:32.740Z,86.46
2023-04-02T05:52:42.625Z,86.69
2023-04-02T05:54:51.869Z,86.51
2023-04-02T05:57:04.651Z,86.36
2023-04-02T05:59:14.102Z,85.89
2023-04-02T06:01:27.528Z,85.66
2023-04-02T06:03:45.099Z,85.11
2023-04-02T06:05:54.855Z,84.89
2023-04-02T06:08:06.773Z,85.15
2023-04-02T06:10:20.749Z,84.46
2023-04-02T06:12:34.426Z,84.75
2023-04-02T06:14:41.175Z,84.39
2023-04-02T06:16:48.658Z,84.86
2023-04-02T06:18:53.904Z,84.70
2023-04-02T06:21:01.508Z,84.61
2023-04-02T06:23:16.386Z,84.37
2023-04-02T06:25:27.753Z,84.20
2023-04-02T06:27:41.299Z,84.09
2023-04-02T06:29:48.800Z,83.82
2023-04-02T06:32:00.285Z,83.93
2023-04-02T06:34:08.919Z,84.09
2023-04-02T06:36:16.459Z,83.98
2023-04-02T06:38:26.426Z,83.88
2023-04-02T06:40:43.967Z,82.93
2023-04-02T06:42:56.521Z,82.45
2023-04-02T06:45:01.645Z,82.41
2023-04-02T06:47:13.298Z,82.47
2023-04-02T06:49:26.366Z,82.52
2023-04-02T06:51:44.113Z,81.61
2023-04-02T06:53:50.611Z,80.84
2023-04-02T06:55:59.921Z,80.59
2023-04-02T06:58:04.934Z,80.50
2023-04-02T07:00:33.252Z,80.48
2023-04-02T07:02:43.914Z,80.93
2023-04-02T07:04:50.917Z,81.26
2023-04-02T07:06:58.642Z,80.77
2023-04-02T07:09:05.811Z,81.33
2023-04-02T07:11:21.000Z,80.72
2023-04-02T07:13:27.836Z,80.79
2023-04-02T07:15:33.058Z,80.75
2023-04-02T07:17:40.982Z,80.13
2023-04-02T07:19:49.816Z,80.38
2023-04-02T07:21:54.989Z,80.76
2023-04-02T07:24:02.683Z,80.70
2023-04-02T07:26:11.333Z,80.67
2023-04-02T07:28:16.997Z,80.83
2023-04-02T07:30:26.176Z,80.70
2023-04-02T07:32:31.117Z,80.10
2023-04-02T07:34:40.960Z,80.46
2023-04-02T07:36:48.911Z,80.96
2023-04-02T07:38:56.146Z,80.89
2023-04-02T07:41:09.665Z,80.18
2023-04-02T07:43:16.898Z,80.08
2023-04-02T07:45:22.861Z,80.30
2023-04-02T07:47:29.230Z,80.48
2023-04-02T07:49:35.700Z,80.44
2023-04-02T07:51:41.399Z,80.71
2023-04-02T07:53:50.542Z,80.49
2023-04-02T07:56:05.912Z,80.46
2023-04-02T07:58:16.694Z,79.76
2023-04-02T08:00:26.928Z,80.23
2023-04-02T08:02:37.913Z,80.32
2023-04-02T08:04:42.920Z,80.19
2023-04-02T08:06:50.049Z,80.51
2023-04-02T08:08:57.321Z,80.49
2023-04-02T08:11:04.762Z,80.17
2023-04-02T08:13:12.250Z,80.02
2023-04-02T08:15:25.540Z,80.13
2023-04-02T08:17:31.625Z,80.24
2023-04-02T08:19:53.824Z,80.23
2023-04-02T08:22:04.270Z,79.86
2023-04-02T08:24:20.558Z,79.84
2023-04-02T08:26:28.059Z,80.06
2023-04-02T08:28:46.843Z,80.36
2023-04-02T08:30:56.732Z,80.29
2023-04-02T08:33:05.569Z,79.84
2023-04-02T08:35:13.428Z,80.56
2023-04-02T08:37:23.317Z,80.06
2023-04-02T08:39:33.897Z,79.67
2023-04-02T08:41:50.451Z,80.16
2023-04-02T08:44:19.525Z,80.34
2023-04-02T08:46:29.821Z,79.47
2023-04-02T08:48:39.098Z,79.85
2023-04-02T08:50:48.982Z,79.84
2023-04-02T08:53:02.959Z,79.75
2023-04-02T08:55:32.864Z,79.35
2023-04-02T08:57:53.607Z,79.65
2023-04-02T09:00:11.135Z,78.85
2023-04-02T09:02:39.401Z,78.72
2023-04-02T09:04:45.771Z,78.68
2023-04-02T09:06:59.277Z,78.04
2023-04-02T09:09:15.135Z,77.48
2023-04-02T09:11:27.850Z,77.67
2023-04-02T09:13:37.902Z,77.33
2023-04-02T09:15:42.942Z,76.91
2023-04-02T09:17:54.088Z,77.45
2023-04-02T09:20:05.809Z,76.72
2023-04-02T09:22:24.177Z,76.42
2023-04-02T09:24:30.396Z,75.50
2023-04-02T09:26:37.185Z,75.03
2023-04-02T09:28:44.957Z,75.11
2023-04-02T09:31:04.358Z,74.63
2023-04-02T09:33:10.522Z,74.40
2023-04-02T09:35:26.129Z,73.45
2023-04-02T09:37:41.884Z,72.17
2023-04-02T09:39:47.511Z,72.29
2023-04-02T09:42:02.719Z,72.42
2023-04-02T09:44:23.879Z,72.69
2023-04-02T09:46:28.851Z,70.74
2023-04-02T09:48:36.065Z,69.57
2023-04-02T09:50:41.849Z,69.54
2023-04-02T09:52:50.609Z,70.03
2023-04-02T09:55:22.042Z,70.02
2023-04-02T09:57:28.307Z,69.19
2023-04-02T09:59:37.812Z,68.81
2023-04-02T10:01:44.379Z,67.29
2023-04-02T10:03:49.636Z,66.91
2023-04-02T10:06:10.600Z,66.82
2023-04-02T10:08:23.947Z,65.64
2023-04-02T10:10:35.274Z,65.06
2023-04-02T10:12:49.940Z,66.48
2023-04-02T10:14:59.699Z,64.64
2023-04-02T10:17:20.327Z,64.10
2023-04-02T10:19:35.557Z,63.04
2023-04-02T10:21:45.349Z,63.89
2023-04-02T10:23:56.551Z,63.69
2023-04-02T10:26:21.909Z,63.16
2023-04-02T10:28:48.748Z,64.09
2023-04-02T10:31:06.941Z,62.36
2023-04-02T10:33:21.665Z,63.28
2023-04-02T10:35:53.825Z,62.88
2023-04-02T10:38:50.009Z,61.36
2023-04-02T10:41:08.581Z,60.28
2023-04-02T10:43:57.832Z,59.92
2023-04-02T10:46:12.975Z,60.99
2023-04-02T10:48:29.480Z,61.10
2023-04-02T10:50:41.333Z,60.88
2023-04-02T10:52:54.128Z,60.88
2023-04-02T10:55:08.117Z,59.84
2023-04-02T10:57:25.524Z,58.61
2023-04-02T10:59:37.135Z,58.47
2023-04-02T11:01:49.164Z,58.00
2023-04-02T11:04:02.936Z,59.24
2023-04-02T11:06:16.508Z,57.85
2023-04-02T11:08:25.986Z,56.71
2023-04-02T11:10:37.061Z,58.61
2023-04-02T11:12:46.702Z,58.83
2023-04-02T11:14:53.586Z,57.63
2023-04-02T11:17:08.144Z,57.12
2023-04-02T11:19:26.633Z,56.23
2023-04-02T11:21:57.256Z,55.94
2023-04-02T11:24:09.788Z,56.73
2023-04-02T11:26:45.017Z,57.21
2023-04-02T11:28:49.909Z,56.47
2023-04-02T11:30:58.551Z,55.46
2023-04-02T11:33:41.389Z,54.12
2023-04-02T11:39:01.863Z,56.01
2023-04-02T11:41:38.408Z,54.48
2023-04-02T11:43:54.662Z,54.36
2023-04-02T11:46:09.801Z,54.94
2023-04-02T11:48:31.734Z,54.80
2023-04-02T11:50:39.587Z,54.93
2023-04-02T11:52:57.588Z,53.99
2023-04-02T11:55:39.600Z,54.96
2023-04-02T11:57:59.357Z,53.53
2023-04-02T12:00:23.670Z,54.04
2023-04-02T12:02:34.518Z,53.42
2023-04-02T12:04:58.635Z,51.99
2023-04-02T12:07:36.207Z,50.34
2023-04-02T12:09:55.385Z,51.91
2023-04-02T12:12:19.059Z,51.92
2023-04-02T12:14:54.941Z,51.60
2023-04-02T12:17:32.172Z,50.53
2023-04-02T12:19:46.315Z,50.95
2023-04-02T12:21:57.037Z,50.62
2023-04-02T12:24:04.802Z,51.13
2023-04-02T12:26:38.966Z,51.65
2023-04-02T12:28:47.696Z,51.30
2023-04-02T12:31:15.343Z,51.54
2023-04-02T12:34:05.256Z,50.30
2023-04-02T12:36:22.800Z,49.61
2023-04-02T12:38:41.996Z,50.72
2023-04-02T12:41:10.638Z,50.60
2023-04-02T12:43:58.315Z,51.28
2023-04-02T12:46:48.765Z,52.03
2023-04-02T12:49:25.493Z,49.68
2023-04-02T12:51:31.118Z,48.80
2023-04-02T12:53:54.973Z,48.55
2023-04-02T12:56:17.036Z,49.90
2023-04-02T12:58:35.274Z,49.87
2023-04-02T13:01:03.124Z,49.59
2023-04-02T13:06:16.074Z,49.04
2023-04-02T13:08:34.634Z,49.98
2023-04-02T13:10:55.607Z,50.19
2023-04-02T13:13:19.515Z,49.46
2023-04-02T13:15:47.546Z,50.28
2023-04-02T13:18:10.938Z,51.08
2023-04-02T13:20:44.018Z,50.98
2023-04-02T13:24:20.226Z,50.60
2023-04-02T13:27:20.926Z,52.03
2023-04-02T13:29:48.264Z,52.07
2023-04-02T13:32:50.795Z,51.17
2023-04-02T13:38:18.377Z,48.29
2023-04-02T13:40:36.200Z,48.02
2023-04-02T13:51:37.438Z,49.79
2023-04-02T13:57:43.443Z,48.44
2023-04-02T14:00:38.550Z,49.39
2023-04-02T14:03:14.374Z,48.87
2023-04-02T14:05:30.659Z,48.48
2023-04-02T14:07:51.154Z,48.73
2023-04-02T14:10:22.974Z,47.94
2023-04-02T14:12:41.518Z,48.10
2023-04-02T14:15:03.516Z,48.61
2023-04-02T14:17:17.058Z,47.35
2023-04-02T14:19:38.081Z,47.17
2023-04-02T14:21:56.601Z,48.58
2023-04-02T14:24:16.516Z,47.34
2023-04-02T14:26:33.581Z,47.04
2023-04-02T14:28:49.510Z,47.82
2023-04-02T14:31:01.953Z,49.20
2023-04-02T14:33:13.020Z,46.71
2023-04-02T14:35:24.621Z,47.14
2023-04-02T14:37:37.098Z,46.75
2023-04-02T14:39:47.687Z,47.20
2023-04-02T14:42:01.075Z,47.41
2023-04-02T14:44:10.863Z,47.67
2023-04-02T14:46:15.685Z,47.36
2023-04-02T14:48:31.774Z,46.93
2023-04-02T14:50:42.152Z,47.35
2023-04-02T14:52:54.005Z,47.61
2023-04-02T14:55:05.784Z,48.30
2023-04-02T14:57:24.000Z,46.88
2023-04-02T14:59:38.345Z,46.96
2023-04-02T15:09:20.143Z,46.32
2023-04-02T15:28:27.341Z,46.84
2023-04-02T15:45:31.270Z,46.96
2023-04-02T15:52:31.650Z,47.87
2023-04-02T16:33:39.991Z,51.16
2023-04-02T16:35:54.956Z,51.56
2023-04-02T16:38:08.164Z,52.08
2023-04-02T16:40:19.656Z,51.90
2023-04-02T16:42:36.674Z,51.99
2023-04-02T16:44:54.237Z,51.56
2023-04-02T16:47:13.725Z,51.22
2023-04-02T16:49:32.745Z,51.21
2023-04-02T16:51:46.412Z,51.82
2023-04-02T16:54:02.192Z,51.95
2023-04-02T16:56:24.499Z,52.35
2023-04-02T16:58:46.847Z,53.16
2023-04-02T17:00:56.587Z,53.03
2023-04-02T17:03:12.594Z,53.37
2023-04-02T17:05:33.076Z,53.51
2023-04-02T17:07:43.834Z,53.49
2023-04-02T17:09:52.498Z,53.71
2023-04-02T17:12:06.712Z,53.05
2023-04-02T17:14:22.257Z,53.49
2023-04-02T17:16:35.386Z,53.94
2023-04-02T17:21:38.309Z,53.49
2023-04-02T17:23:56.342Z,54.86
2023-04-02T17:26:09.011Z,55.01
2023-04-02T17:28:18.390Z,54.56
2023-04-02T17:30:38.695Z,54.40
2023-04-02T17:32:43.794Z,54.70
2023-04-02T17:34:48.926Z,54.29
2023-04-02T17:37:08.290Z,54.51
2023-04-02T17:39:23.829Z,54.66
2023-04-02T17:41:38.417Z,55.94
2023-04-02T17:43:51.072Z,55.99
2023-04-02T17:45:59.424Z,55.83
2023-04-02T17:48:08.892Z,56.13
2023-04-02T17:50:55.309Z,56.23
2023-04-02T17:53:19.476Z,56.63
2023-04-02T17:55:34.429Z,56.09
2023-04-02T17:57:52.375Z,56.78
2023-04-02T18:00:05.916Z,57.03
2023-04-02T18:02:28.291Z,57.11
2023-04-02T18:04:43.507Z,57.53
2023-04-02T18:06:59.217Z,57.63
2023-04-02T18:09:25.511Z,58.35
2023-04-02T18:11:38.762Z,58.77
2023-04-02T18:13:45.232Z,59.13
2023-04-02T18:16:05.207Z,59.75
2023-04-02T18:18:20.224Z,60.22
2023-04-02T18:20:33.188Z,61.02
2023-04-02T18:22:41.723Z,61.32
2023-04-02T18:25:19.399Z,61.92
2023-04-02T18:27:49.210Z,63.12
2023-04-02T18:30:03.158Z,63.49
2023-04-02T18:32:32.459Z,64.00
2023-04-02T18:34:52.704Z,64.37
2023-04-02T18:37:11.044Z,64.89
2023-04-02T18:39:23.627Z,65.13
2023-04-02T18:41:47.340Z,65.31
2023-04-02T18:44:09.737Z,65.48
2023-04-02T18:46:25.370Z,65.86
2023-04-02T18:48:43.874Z,66.46
2023-04-02T18:50:51.889Z,66.77
2023-04-02T18:52:56.811Z,66.85
2023-04-02T18:55:08.675Z,67.21
2023-04-02T18:57:17.287Z,67.46
2023-04-02T18:59:38.657Z,67.61
2023-04-02T19:01:46.784Z,67.62
2023-04-02T19:04:03.848Z,67.90
2023-04-02T19:06:12.820Z,68.53
2023-04-02T19:08:23.118Z,68.25
2023-04-02T19:10:33.966Z,68.47
2023-04-02T19:12:38.925Z,68.52
2023-04-02T19:14:50.236Z,68.60
2023-04-02T19:17:05.104Z,68.70
2023-04-02T19:19:18.406Z,69.27
2023-04-02T19:21:36.916Z,69.02
2023-04-02T19:23:58.910Z,69.32
2023-04-02T19:26:09.645Z,69.80
2023-04-02T19:28:21.768Z,69.79
2023-04-02T19:30:41.297Z,69.50
2023-04-02T19:32:55.710Z,69.98
2023-04-02T19:35:13.383Z,69.40
2023-04-02T19:37:23.774Z,69.25
2023-04-02T19:39:46.981Z,69.25
2023-04-02T19:41:56.122Z,69.12
2023-04-02T19:44:01.174Z,69.72
2023-04-02T19:46:09.198Z,69.30
2023-04-02T19:48:17.862Z,69.95
2023-04-02T19:50:22.813Z,70.37
2023-04-02T19:52:27.561Z,70.67
2023-04-02T19:54:32.451Z,70.65
2023-04-02T19:56:38.226Z,70.60
2023-04-02T19:58:43.174Z,70.07
2023-04-02T20:00:48.104Z,70.39
2023-04-02T20:02:55.599Z,70.84
2023-04-02T20:05:00.519Z,70.73
2023-04-02T20:07:05.865Z,71.19
2023-04-02T20:09:12.647Z,71.16
2023-04-02T20:11:17.690Z,70.88
2023-04-02T20:13:24.913Z,70.86
2023-04-02T20:15:29.673Z,71.08
2023-04-02T20:17:34.582Z,71.25
2023-04-02T20:19:42.472Z,71.39
2023-04-02T20:21:47.473Z,71.06
2023-04-02T20:23:55.970Z,71.27
2023-04-02T20:26:00.865Z,71.73
2023-04-02T20:28:05.791Z,71.64
2023-04-02T20:30:16.225Z,71.69
2023-04-02T20:32:21.196Z,72.20
2023-04-02T20:34:29.269Z,71.79
2023-04-02T20:36:36.944Z,71.76
2023-04-02T20:38:42.625Z,71.50
2023-04-02T20:40:53.065Z,71.73
2023-04-02T20:55:39.384Z,71.76
2023-04-02T20:57:44.188Z,72.11
2023-04-02T20:59:49.128Z,72.30
2023-04-02T21:01:54.093Z,72.50
2023-04-02T21:04:00.757Z,72.30
2023-04-02T21:06:05.674Z,72.08
2023-04-02T21:08:10.847Z,72.29
2023-04-02T21:10:16.897Z,72.16
2023-04-02T21:12:25.163Z,72.68
2023-04-02T21:14:31.626Z,72.25
2023-04-02T21:16:36.847Z,72.48
2023-04-02T21:26:18.958Z,72.53
2023-04-02T21:41:50.160Z,75.08
2023-04-02T21:43:55.606Z,75.44
2023-04-02T21:46:01.724Z,75.62
2023-04-02T21:48:06.794Z,76.10
2023-04-02T21:50:12.946Z,76.41
2023-04-02T21:52:18.624Z,76.79
2023-04-02T21:54:23.811Z,75.84
2023-04-02T21:56:30.788Z,76.62
2023-04-02T21:58:38.505Z,76.59
2023-04-02T22:00:43.794Z,76.50
2023-04-02T22:02:48.788Z,76.37
2023-04-02T22:04:55.258Z,76.04
2023-04-02T22:07:00.358Z,75.83
2023-04-02T22:09:09.539Z,75.76
2023-04-02T22:11:16.376Z,75.48
2023-04-02T22:13:21.183Z,75.42
2023-04-02T22:15:28.534Z,75.07
2023-04-02T22:17:33.440Z,75.35
2023-04-02T22:19:38.299Z,74.86
2023-04-02T22:21:43.975Z,74.64
2023-04-02T22:23:49.577Z,74.92
2023-04-02T22:25:54.378Z,74.80
2023-04-02T22:27:59.446Z,74.86
2023-04-02T22:30:07.312Z,74.77
2023-04-02T22:32:14.816Z,74.79
2023-04-02T22:34:19.894Z,74.54
2023-04-02T22:36:26.096Z,74.57
2023-04-02T22:38:31.893Z,74.21
2023-04-02T22:40:37.358Z,74.59
2023-04-02T22:42:46.802Z,74.53
2023-04-02T22:44:52.749Z,74.54
2023-04-02T22:46:57.623Z,74.75
2023-04-02T22:49:05.037Z,74.55
2023-04-02T22:51:11.715Z,74.85
2023-04-02T22:54:29.542Z,74.58
2023-04-02T23:06:17.634Z,74.65
2023-04-02T23:09:11.966Z,74.61
2023-04-02T23:14:56.829Z,75.13
2023-04-02T23:21:23.227Z,74.73
2023-04-02T23:35:56.773Z,74.58
2023-04-02T23:40:53.896Z,74.49
2023-04-02T23:43:00.927Z,74.62
2023-04-02T23:45:12.599Z,74.49
2023-04-02T23:47:17.337Z,74.78
2023-04-02T23:49:22.600Z,74.82
2023-04-02T23:51:29.140Z,74.46
2023-04-02T23:53:33.896Z,75.10
2023-04-02T23:55:41.118Z,75.16
2023-04-02T23:57:48.837Z,74.89
2023-04-02T23:59:54.995Z,75.25
